createdAt,value
2018-08-13T03:15:15.034Z,3
2018-08-13T03:23:15.729Z,7
2018-08-13T03:26:45.933Z,10
2018-08-13T03:28:46.567Z,13
2018-08-13T03:30:46.177Z,17
2018-08-13T03:31:46.293Z,20
2018-08-13T03:33:16.399Z,23
2018-08-13T03:33:46.521Z,27
2018-08-13T03:34:46.482Z,30
2018-08-13T03:35:46.531Z,33
2018-08-13T03:36:16.546Z,37
2018-08-13T03:36:46.567Z,40
2018-08-13T03:37:16.599Z,43
2018-08-13T03:37:46.661Z,47
2018-08-13T03:38:16.692Z,50
2018-08-13T03:38:46.790Z,53
2018-08-13T03:39:16.720Z,57
2018-08-13T03:39:46.760Z,60
2018-08-13T03:40:16.812Z,67
2018-08-13T03:40:46.799Z,70
2018-08-13T03:41:16.891Z,77
2018-08-13T03:41:46.859Z,83
2018-08-13T03:42:16.901Z,87
2018-08-13T03:42:46.923Z,93
2018-08-13T03:43:16.964Z,100
2018-08-13T03:43:47.101Z,110
2018-08-13T03:44:17.034Z,117
2018-08-13T03:44:47.041Z,123
2018-08-13T03:45:17.083Z,133
2018-08-13T03:45:47.145Z,143
2018-08-13T03:46:17.170Z,153
2018-08-13T03:46:47.179Z,163
2018-08-13T03:47:17.242Z,173
2018-08-13T03:47:47.256Z,187
2018-08-13T03:48:17.283Z,200
2018-08-13T03:48:47.448Z,213
2018-08-13T03:49:17.439Z,237
2018-08-13T03:49:47.369Z,263
2018-08-13T03:50:17.433Z,293
2018-08-13T03:50:47.465Z,320
2018-08-13T03:51:17.483Z,350
2018-08-13T03:51:47.498Z,377
2018-08-13T03:52:17.539Z,400
2018-08-13T03:52:47.564Z,420
2018-08-13T03:53:17.612Z,440
2018-08-13T03:53:47.795Z,460
2018-08-13T03:54:17.645Z,480
2018-08-13T03:54:47.689Z,503
2018-08-13T03:55:17.754Z,523
2018-08-13T03:55:47.737Z,547
2018-08-13T03:56:17.816Z,567
2018-08-13T03:56:47.807Z,587
2018-08-13T03:57:17.861Z,603
2018-08-13T03:57:47.845Z,620
2018-08-13T03:58:17.954Z,633
2018-08-13T03:58:48.109Z,643
2018-08-13T03:59:17.976Z,653
2018-08-13T03:59:47.993Z,670
2018-08-13T04:00:18.050Z,690
2018-08-13T04:00:48.049Z,710
2018-08-13T04:01:18.156Z,737
2018-08-13T04:01:48.084Z,763
2018-08-13T04:02:18.141Z,793
2018-08-13T04:02:48.156Z,823
2018-08-13T04:03:18.193Z,853
2018-08-13T04:03:48.348Z,887
2018-08-13T04:04:18.285Z,923
2018-08-13T04:04:48.300Z,960
2018-08-13T04:05:18.357Z,993
2018-08-13T04:05:48.367Z,1030
2018-08-13T04:06:18.436Z,1067
2018-08-13T04:06:48.429Z,1103
2018-08-13T04:07:18.449Z,1143
2018-08-13T04:07:48.526Z,1183
2018-08-13T04:08:18.512Z,1220
2018-08-13T04:08:48.835Z,1260
2018-08-13T04:09:18.619Z,1293
2018-08-13T04:09:48.577Z,1330
2018-08-13T04:10:18.632Z,1370
2018-08-13T04:10:48.648Z,1407
2018-08-13T04:11:18.712Z,1443
2018-08-13T04:11:48.728Z,1480
2018-08-13T04:12:18.747Z,1510
2018-08-13T04:12:48.811Z,1550
2018-08-13T04:13:18.811Z,1593
2018-08-13T04:13:48.944Z,1637
2018-08-13T04:14:18.881Z,1680
2018-08-13T04:14:48.879Z,1723
2018-08-13T04:15:18.930Z,1773
2018-08-13T04:15:48.942Z,1823
2018-08-13T04:16:19.049Z,1877
2018-08-13T04:16:49.042Z,1923
2018-08-13T04:17:19.050Z,1980
2018-08-13T04:17:49.073Z,2040
2018-08-13T04:18:19.129Z,2103
2018-08-13T04:18:49.401Z,2153
2018-08-13T04:19:19.213Z,2203
2018-08-13T04:19:49.197Z,2247
2018-08-13T04:20:19.283Z,2290
2018-08-13T04:20:49.292Z,2330
2018-08-13T04:21:19.363Z,2367
2018-08-13T04:21:49.358Z,2407
2018-08-13T04:22:19.394Z,2437
2018-08-13T04:22:49.386Z,2470
2018-08-13T04:23:19.469Z,2510
2018-08-13T04:23:49.729Z,2550
2018-08-13T04:24:19.498Z,2587
2018-08-13T04:24:49.620Z,2630
2018-08-13T04:25:19.576Z,2677
2018-08-13T04:25:49.594Z,2720
2018-08-13T04:26:19.618Z,2763
2018-08-13T04:26:49.667Z,2807
2018-08-13T04:27:19.686Z,2860
2018-08-13T04:27:49.705Z,2920
2018-08-13T04:28:19.734Z,2987
2018-08-13T04:28:49.908Z,3050
2018-08-13T04:29:19.794Z,3120
2018-08-13T04:29:49.813Z,3187
2018-08-13T04:30:19.898Z,3230
2018-08-13T04:30:49.874Z,3270
2018-08-13T04:31:19.915Z,3303
2018-08-13T04:31:49.932Z,3327
2018-08-13T04:32:19.978Z,3350
2018-08-13T04:32:50.090Z,3380
2018-08-13T04:33:20.077Z,3413
2018-08-13T04:33:50.183Z,3453
2018-08-13T04:34:20.101Z,3503
2018-08-13T04:34:50.113Z,3553
2018-08-13T04:35:20.209Z,3613
2018-08-13T04:35:50.180Z,3670
2018-08-13T04:36:20.287Z,3730
2018-08-13T04:36:50.307Z,3787
2018-08-13T04:37:20.309Z,3843
2018-08-13T04:37:50.314Z,3907
2018-08-13T04:38:20.383Z,3963
2018-08-13T04:38:50.622Z,4023
2018-08-13T04:39:20.453Z,4073
2018-08-13T04:39:50.444Z,4130
2018-08-13T04:40:20.534Z,4190
2018-08-13T04:40:50.513Z,4250
2018-08-13T04:41:20.528Z,4310
2018-08-13T04:41:50.634Z,4380
2018-08-13T04:42:20.683Z,4450
2018-08-13T04:42:50.648Z,4507
2018-08-13T04:43:20.693Z,4570
2018-08-13T04:43:51.199Z,4640
2018-08-13T04:44:20.782Z,4713
2018-08-13T04:44:50.763Z,4887
2018-08-13T04:45:20.780Z,5207
2018-08-13T04:45:50.793Z,5380
2018-08-13T04:46:20.859Z,5283
2018-08-13T04:46:50.850Z,5370
2018-08-13T04:47:20.938Z,5350
2018-08-13T04:47:51.025Z,5247
2018-08-13T04:48:21.053Z,5257
2018-08-13T04:48:51.188Z,5283
2018-08-13T04:49:21.053Z,5380
2018-08-13T04:49:51.040Z,5470
2018-08-13T04:50:21.107Z,5537
2018-08-13T04:50:51.109Z,5637
2018-08-13T04:51:21.260Z,5740
2018-08-13T04:51:51.209Z,5837
2018-08-13T04:52:21.243Z,5957
2018-08-13T04:52:51.278Z,6080
2018-08-13T04:53:21.474Z,6247
2018-08-13T04:53:51.484Z,6423
2018-08-13T04:54:21.332Z,6753
2018-08-13T04:54:51.381Z,6873
2018-08-13T04:55:21.452Z,7037
2018-08-13T04:55:51.443Z,7233
2018-08-13T04:56:21.480Z,7533
2018-08-13T04:56:51.505Z,7773
2018-08-13T04:57:21.553Z,7877
2018-08-13T04:57:51.598Z,7820
2018-08-13T04:58:21.641Z,7563
2018-08-13T04:58:52.128Z,7480
2018-08-13T04:59:21.661Z,7507
2018-08-13T04:59:51.698Z,7567
2018-08-13T05:00:21.704Z,7660
2018-08-13T05:00:51.730Z,7753
2018-08-13T05:01:21.760Z,7857
2018-08-13T05:01:51.776Z,7977
2018-08-13T05:02:21.830Z,8117
2018-08-13T05:02:51.869Z,8277
2018-08-13T05:03:21.886Z,8423
2018-08-13T05:03:52.160Z,8543
2018-08-13T05:04:21.944Z,8713
2018-08-13T05:04:52.038Z,8823
2018-08-13T05:05:22.044Z,8910
2018-08-13T05:05:52.034Z,8960
2018-08-13T05:06:23.135Z,9007
2018-08-13T05:06:52.133Z,9047
2018-08-13T05:07:22.283Z,9097
2018-08-13T05:07:52.182Z,9140
2018-08-13T05:08:22.227Z,9170
2018-08-13T05:08:52.338Z,9220
2018-08-13T05:09:22.291Z,9280
2018-08-13T05:14:22.670Z,9317
2018-08-13T05:14:52.660Z,9337
2018-08-13T05:15:22.681Z,9543
2018-08-13T05:15:52.758Z,9387
2018-08-13T05:16:22.716Z,9527
2018-08-13T05:16:52.723Z,9270
2018-08-13T05:17:22.800Z,8933
2018-08-13T05:17:52.775Z,8717
2018-08-13T05:18:22.850Z,8637
2018-08-13T05:18:52.829Z,8837
2018-08-13T05:19:22.868Z,9043
2018-08-13T05:19:52.888Z,9057
2018-08-13T05:20:22.924Z,8597
2018-08-13T05:20:52.970Z,8473
2018-08-13T05:21:23.091Z,7757
2018-08-13T05:21:52.997Z,7540
2018-08-13T05:22:23.060Z,7363
2018-08-13T05:22:53.061Z,7203
2018-08-13T05:23:23.132Z,6977
2018-08-13T05:23:53.165Z,6930
2018-08-13T05:24:23.200Z,6747
2018-08-13T05:24:53.192Z,6630
2018-08-13T05:25:23.552Z,6563
2018-08-13T05:25:53.589Z,6560
2018-08-13T05:26:23.631Z,6550
2018-08-13T05:27:23.699Z,6373
2018-08-13T05:27:53.704Z,6270
2018-08-13T05:28:23.759Z,6230
2018-08-13T05:28:53.769Z,6210
2018-08-13T05:29:23.895Z,6173
2018-08-13T05:29:53.839Z,6057
2018-08-13T05:30:23.994Z,6113
2018-08-13T05:30:53.906Z,6067
2018-08-13T05:31:54.019Z,6103
2018-08-13T05:32:24.015Z,6167
2018-08-13T05:32:53.995Z,6317
2018-08-13T05:33:24.093Z,6547
2018-08-13T05:33:54.095Z,6720
2018-08-13T05:34:24.174Z,6753
2018-08-13T05:34:54.167Z,6803
2018-08-13T05:35:24.257Z,6607
2018-08-13T05:35:54.242Z,6803
2018-08-13T05:36:24.272Z,6910
2018-08-13T05:36:54.311Z,7017
2018-08-13T05:37:24.337Z,7593
2018-08-13T05:37:54.305Z,8397
2018-08-13T05:38:24.358Z,8330
2018-08-13T05:38:54.391Z,8983
2018-08-13T05:39:24.652Z,8227
2018-08-13T05:39:54.474Z,7903
2018-08-13T05:40:24.484Z,7653
2018-08-13T05:40:54.485Z,7773
2018-08-13T05:41:24.562Z,8027
2018-08-13T05:41:54.549Z,8367
2018-08-13T05:42:24.640Z,8590
2018-08-13T05:42:54.598Z,9077
2018-08-13T05:43:24.669Z,9320
2018-08-13T05:43:54.653Z,9660
2018-08-13T05:44:24.803Z,10060
2018-08-13T05:44:54.752Z,10387
2018-08-13T05:45:24.757Z,12977
2018-08-13T05:45:54.775Z,17787
2018-08-13T05:46:24.867Z,19653
2018-08-13T05:46:54.822Z,18540
2018-08-13T05:47:24.898Z,16420
2018-08-13T05:47:54.887Z,13610
2018-08-13T05:48:24.927Z,12820
2018-08-13T05:48:54.943Z,12703
2018-08-13T05:49:25.151Z,12913
2018-08-13T05:49:55.028Z,13200
2018-08-13T05:50:25.051Z,13440
2018-08-13T05:50:55.083Z,13747
2018-08-13T05:51:25.114Z,13940
2018-08-13T05:51:56.083Z,14080
2018-08-13T05:52:25.223Z,14233
2018-08-13T05:52:55.205Z,14357
2018-08-13T05:53:25.252Z,14393
2018-08-13T05:53:55.294Z,14440
2018-08-13T05:54:25.450Z,14410
2018-08-13T05:54:55.354Z,14343
2018-08-13T05:55:25.413Z,14333
2018-08-13T05:55:55.392Z,15027
2018-08-13T05:56:25.462Z,14970
2018-08-13T05:56:55.460Z,15113
2018-08-13T05:57:25.527Z,14877
2018-08-13T05:57:55.513Z,13760
2018-08-13T05:58:25.556Z,13153
2018-08-13T05:58:55.607Z,12777
2018-08-13T05:59:25.671Z,12370
2018-08-13T05:59:55.651Z,12220
2018-08-13T06:00:25.671Z,12150
2018-08-13T06:00:55.686Z,11643
2018-08-13T06:01:25.730Z,11853
2018-08-13T06:01:55.750Z,11700
2018-08-13T06:02:25.807Z,11110
2018-08-13T06:02:55.868Z,11377
2018-08-13T06:03:25.851Z,10837
2018-08-13T06:03:55.876Z,10620
2018-08-13T06:04:25.973Z,10433
2018-08-13T06:04:55.926Z,10380
2018-08-13T06:05:25.979Z,10270
2018-08-13T06:05:55.986Z,10223
2018-08-13T06:06:26.062Z,10193
2018-08-13T06:06:56.057Z,10223
2018-08-13T06:07:26.096Z,10337
2018-08-13T06:07:56.158Z,10520
2018-08-13T06:08:26.159Z,10687
2018-08-13T06:08:56.187Z,10880
2018-08-13T06:09:26.290Z,11083
2018-08-13T06:09:56.247Z,11347
2018-08-13T06:10:26.316Z,11653
2018-08-13T06:10:56.337Z,12007
2018-08-13T06:11:26.479Z,12407
2018-08-13T06:11:56.427Z,12910
2018-08-13T06:12:26.429Z,13470
2018-08-13T06:12:56.507Z,14147
2018-08-13T06:13:26.548Z,14787
2018-08-13T06:13:56.524Z,15353
2018-08-13T06:14:26.633Z,16003
2018-08-13T06:14:56.592Z,16577
2018-08-13T06:15:26.629Z,17137
2018-08-13T06:15:56.670Z,17883
2018-08-13T06:16:27.259Z,18613
2018-08-13T06:16:57.285Z,19207
2018-08-13T06:17:27.442Z,19750
2018-08-13T06:17:57.381Z,20137
2018-08-13T06:18:27.462Z,20490
2018-08-13T06:18:57.440Z,20853
2018-08-13T06:19:27.556Z,21337
2018-08-13T06:19:57.488Z,21683
2018-08-13T06:20:27.523Z,21887
2018-08-13T06:20:57.554Z,22187
2018-08-13T06:21:27.836Z,22333
2018-08-13T06:21:57.834Z,22423
2018-08-13T06:22:27.870Z,22483
2018-08-13T06:22:57.890Z,22477
2018-08-13T06:23:27.930Z,22400
2018-08-13T06:23:57.950Z,22247
2018-08-13T06:24:28.097Z,22023
2018-08-13T06:24:58.018Z,21760
2018-08-13T06:25:28.068Z,21447
2018-08-13T06:25:58.086Z,21087
2018-08-13T06:26:28.118Z,20620
2018-08-13T06:26:58.207Z,20107
2018-08-13T06:27:28.174Z,19563
2018-08-13T06:27:58.200Z,19117
2018-08-13T06:28:28.309Z,19720
2018-08-13T06:28:58.296Z,19133
2018-08-13T06:29:28.420Z,18083
2018-08-13T06:29:58.491Z,17740
2018-08-13T06:30:28.481Z,17517
2018-08-13T06:30:58.461Z,17697
2018-08-13T06:31:28.507Z,17583
2018-08-13T06:31:58.481Z,18327
2018-08-13T06:32:28.533Z,18970
2018-08-13T06:32:58.587Z,18203
2018-08-13T06:33:28.648Z,19250
2018-08-13T06:33:58.670Z,18657
2018-08-13T06:34:28.706Z,18927
2018-08-13T06:34:58.698Z,19193
2018-08-13T06:35:28.760Z,19703
2018-08-13T06:35:58.728Z,20463
2018-08-13T06:36:28.773Z,20890
2018-08-13T06:36:58.789Z,20927
2018-08-13T06:37:28.837Z,21973
2018-08-13T06:37:58.899Z,22137
2018-08-13T06:38:28.904Z,23243
2018-08-13T06:38:58.913Z,22940
2018-08-13T06:39:29.018Z,23067
2018-08-13T06:39:59.053Z,23190
2018-08-13T06:40:29.023Z,23540
2018-08-13T06:40:59.036Z,23807
2018-08-13T06:41:29.085Z,24000
2018-08-13T06:41:59.104Z,23973
2018-08-13T06:42:29.146Z,23967
2018-08-13T06:42:59.164Z,23753
2018-08-13T06:43:29.227Z,23417
2018-08-13T06:43:59.233Z,23057
2018-08-13T06:44:29.272Z,22567
2018-08-13T06:44:59.346Z,22447
2018-08-13T06:45:29.369Z,22070
2018-08-13T06:45:59.386Z,21570
2018-08-13T06:46:29.473Z,21187
2018-08-13T06:46:59.481Z,20957
2018-08-13T06:47:29.506Z,20493
2018-08-13T06:47:59.519Z,20283
2018-08-13T06:48:29.601Z,20103
2018-08-13T06:48:59.566Z,19990
2018-08-13T06:49:29.674Z,19983
2018-08-13T06:49:59.861Z,20093
2018-08-13T06:50:29.637Z,20583
2018-08-13T06:50:59.808Z,19940
2018-08-13T06:51:29.703Z,19903
2018-08-13T06:51:59.761Z,19870
2018-08-13T06:52:29.782Z,19797
2018-08-13T06:52:59.811Z,19570
2018-08-13T06:53:29.978Z,19323
2018-08-13T06:53:59.868Z,19137
2018-08-13T06:54:29.927Z,19007
2018-08-13T06:55:00.057Z,18953
2018-08-13T06:55:30.006Z,19000
2018-08-13T06:56:00.009Z,19103
2018-08-13T06:56:30.051Z,18900
2018-08-13T06:57:00.020Z,18723
2018-08-13T06:57:30.113Z,18527
2018-08-13T06:58:00.154Z,18370
2018-08-13T06:58:30.171Z,18287
2018-08-13T06:59:00.156Z,18137
2018-08-13T06:59:30.211Z,17880
2018-08-13T07:00:01.366Z,17550
2018-08-13T07:00:30.292Z,17240
2018-08-13T07:01:01.477Z,16910
2018-08-13T07:01:30.353Z,17140
2018-08-13T07:02:01.506Z,16497
2018-08-13T07:02:30.418Z,15883
2018-08-13T07:03:01.531Z,15597
2018-08-13T07:03:30.456Z,15610
2018-08-13T07:04:00.964Z,15763
2018-08-13T07:04:30.543Z,15960
2018-08-13T07:05:01.255Z,16037
2018-08-13T07:05:30.749Z,15980
2018-08-13T07:06:01.477Z,15863
2018-08-13T07:06:30.716Z,15787
2018-08-13T07:07:00.843Z,15793
2018-08-13T07:07:30.689Z,15803
2018-08-13T07:08:01.559Z,16003
2018-08-13T07:08:30.749Z,16160
2018-08-13T07:09:00.888Z,16367
2018-08-13T07:09:31.334Z,16683
2018-08-13T07:10:03.065Z,17077
2018-08-13T07:10:31.007Z,17547
2018-08-13T07:11:01.015Z,17950
2018-08-13T07:11:30.978Z,18323
2018-08-13T07:12:01.689Z,18663
2018-08-13T07:12:31.001Z,18927
2018-08-13T07:13:01.029Z,19167
2018-08-13T07:13:31.064Z,19253
2018-08-13T07:14:01.113Z,19177
2018-08-13T07:14:31.167Z,18923
2018-08-13T07:15:01.401Z,18613
2018-08-13T07:15:31.264Z,18540
2018-08-13T07:16:02.104Z,18400
2018-08-13T07:16:31.895Z,18323
2018-08-13T07:17:01.809Z,18943
2018-08-13T07:17:31.847Z,19983
2018-08-13T07:18:01.861Z,20547
2018-08-13T07:18:31.924Z,19797
2018-08-13T07:19:01.927Z,21000
2018-08-13T07:19:32.276Z,21293
2018-08-13T07:20:02.246Z,21660
2018-08-13T07:20:32.353Z,21897
2018-08-13T07:21:02.449Z,21907
2018-08-13T07:21:32.391Z,21830
2018-08-13T07:22:02.458Z,21637
2018-08-13T07:22:32.508Z,21390
2018-08-13T07:23:02.489Z,20923
2018-08-13T07:23:32.501Z,20510
2018-08-13T07:24:02.564Z,20013
2018-08-13T07:24:32.610Z,19420
2018-08-13T07:25:02.598Z,18893
2018-08-13T07:25:32.636Z,18367
2018-08-13T07:26:02.901Z,17777
2018-08-13T07:26:32.691Z,17203
2018-08-13T07:27:32.783Z,17193
2018-08-13T07:28:02.863Z,16960
2018-08-13T07:28:32.842Z,16720
2018-08-13T07:29:02.876Z,16740
2018-08-13T07:29:32.873Z,17017
2018-08-13T07:30:02.903Z,17367
2018-08-13T07:30:32.935Z,17957
2018-08-13T07:31:03.183Z,17423
2018-08-13T07:31:33.008Z,17303
2018-08-13T07:32:03.062Z,17753
2018-08-13T07:32:33.070Z,17210
2018-08-13T07:33:03.091Z,17020
2018-08-13T07:33:33.131Z,16920
2018-08-13T07:34:03.136Z,17010
2018-08-13T07:34:33.190Z,17167
2018-08-13T07:35:03.219Z,17210
2018-08-13T07:35:33.235Z,17400
2018-08-13T07:36:03.345Z,18537
2018-08-13T07:36:33.273Z,17827
2018-08-13T07:37:03.316Z,18530
2018-08-13T07:37:33.365Z,17623
2018-08-13T07:38:03.353Z,17583
2018-08-13T07:38:33.406Z,17717
2018-08-13T07:39:03.528Z,18170
2018-08-13T07:39:33.998Z,20367
2018-08-13T07:40:03.491Z,20363
2018-08-13T07:40:33.614Z,22663
2018-08-13T07:41:03.653Z,24290
2018-08-13T07:41:33.599Z,24750
2018-08-13T07:42:03.607Z,31723
2018-08-13T07:42:33.659Z,43843
2018-08-13T07:43:03.668Z,47560
2018-08-13T07:43:33.789Z,44073
2018-08-13T07:44:03.718Z,36547
2018-08-13T07:44:33.770Z,30240
2018-08-13T07:45:03.776Z,23543
2018-08-13T07:45:33.879Z,20797
2018-08-13T07:46:03.963Z,20860
2018-08-13T07:46:33.957Z,20017
2018-08-13T07:47:03.900Z,18407
2018-08-13T07:47:33.955Z,19700
2018-08-13T07:48:03.968Z,19787
2018-08-13T07:48:34.017Z,19060
2018-08-13T07:49:04.030Z,17427
2018-08-13T07:49:34.131Z,16797
2018-08-13T07:50:04.094Z,17833
2018-08-13T07:50:34.169Z,18453
2018-08-13T07:51:04.405Z,17623
2018-08-13T07:51:34.269Z,17637
2018-08-13T07:52:04.242Z,19133
2018-08-13T07:52:34.311Z,17997
2018-08-13T07:53:04.289Z,19963
2018-08-13T07:53:34.372Z,23033
2018-08-13T07:54:04.421Z,22367
2018-08-13T07:54:34.396Z,22343
2018-08-13T07:55:04.431Z,21130
2018-08-13T07:55:34.507Z,17820
2018-08-13T07:56:04.703Z,14840
2018-08-13T07:56:34.552Z,15130
2018-08-13T07:57:04.517Z,14907
2018-08-13T07:57:34.631Z,14410
2018-08-13T07:58:04.616Z,15113
2018-08-13T07:58:34.633Z,19110
2018-08-13T07:59:04.687Z,24037
2018-08-13T07:59:34.697Z,19430
2018-08-13T08:00:04.813Z,19613
2018-08-13T08:00:34.772Z,14340
2018-08-13T08:01:05.058Z,13687
2018-08-13T08:01:35.369Z,14270
2018-08-13T08:02:05.388Z,12907
2018-08-13T08:02:35.413Z,13680
2018-08-13T08:03:05.445Z,12897
2018-08-13T08:03:35.486Z,15577
2018-08-13T08:04:05.497Z,20213
2018-08-13T08:04:35.556Z,25367
2018-08-13T08:05:05.571Z,24323
2018-08-13T08:05:35.629Z,24347
2018-08-13T08:06:06.140Z,26017
2018-08-13T08:06:35.724Z,22353
2018-08-13T08:07:05.671Z,20430
2018-08-13T08:07:35.745Z,18860
2018-08-13T08:08:05.738Z,17100
2018-08-13T08:08:35.788Z,17003
2018-08-13T08:09:05.913Z,17533
2018-08-13T08:09:35.988Z,18983
2018-08-13T08:10:05.860Z,18607
2018-08-13T08:10:35.884Z,19180
2018-08-13T08:11:06.068Z,20270
2018-08-13T08:11:36.027Z,21063
2018-08-13T08:12:06.014Z,20683
2018-08-13T08:13:06.088Z,20687
2018-08-13T08:13:36.348Z,20363
2018-08-13T08:14:06.355Z,20053
2018-08-13T08:14:36.442Z,19697
2018-08-13T08:15:06.356Z,19203
2018-08-13T08:15:36.457Z,18740
2018-08-13T08:16:06.970Z,18287
2018-08-13T08:16:36.505Z,17827
2018-08-13T08:17:06.530Z,17350
2018-08-13T08:17:36.584Z,16930
2018-08-13T08:18:06.531Z,16853
2018-08-13T08:18:36.588Z,16090
2018-08-13T08:19:06.646Z,15813
2018-08-13T08:19:36.648Z,15757
2018-08-13T08:20:06.744Z,15213
2018-08-13T08:20:36.737Z,15480
2018-08-13T08:21:06.836Z,14920
2018-08-13T08:21:36.782Z,15883
2018-08-13T08:22:06.772Z,15157
2018-08-13T08:22:36.853Z,16720
2018-08-13T08:23:06.847Z,15533
2018-08-13T08:23:36.891Z,14507
2018-08-13T08:24:06.898Z,15570
2018-08-13T08:24:36.957Z,14713
2018-08-13T08:25:06.958Z,14900
2018-08-13T08:25:37.018Z,15773
2018-08-13T08:26:07.152Z,14470
2018-08-13T08:26:37.229Z,16030
2018-08-13T08:27:07.084Z,16153
2018-08-13T08:27:37.170Z,14947
2018-08-13T08:28:07.194Z,15543
2018-08-13T08:28:37.367Z,15097
2018-08-13T08:29:07.399Z,15123
2018-08-13T08:29:37.491Z,18413
2018-08-13T08:30:07.443Z,15713
2018-08-13T08:30:37.552Z,15233
2018-08-13T08:31:07.553Z,14670
2018-08-13T08:31:37.801Z,14427
2018-08-13T08:32:07.602Z,14340
2018-08-13T08:32:37.606Z,14310
2018-08-13T08:33:07.651Z,14757
2018-08-13T08:33:37.702Z,14357
2018-08-13T08:34:07.722Z,13667
2018-08-13T08:34:37.761Z,13647
2018-08-13T08:35:07.735Z,14127
2018-08-13T08:35:37.784Z,13283
2018-08-13T08:36:07.823Z,13170
2018-08-13T08:36:38.377Z,13190
2018-08-13T08:37:07.870Z,13263
2018-08-13T08:37:37.909Z,13653
2018-08-13T08:38:07.927Z,14097
2018-08-13T08:38:37.973Z,19510
2018-08-13T08:39:08.025Z,23567
2018-08-13T08:39:38.188Z,21617
2018-08-13T08:40:08.041Z,18073
2018-08-13T08:40:38.269Z,18657
2018-08-13T08:41:08.110Z,34387
2018-08-13T08:41:38.285Z,43713
2018-08-13T08:42:08.213Z,54320
2018-08-13T08:42:38.217Z,45523
2018-08-13T08:43:08.319Z,73487
2018-08-13T08:43:38.317Z,61517
2018-08-13T08:44:08.297Z,63113
2018-08-13T08:44:38.381Z,87583
2018-08-13T08:45:08.389Z,81480
2018-08-13T08:45:38.454Z,81077
2018-08-13T08:46:08.446Z,80413
2018-08-13T08:46:38.646Z,66840
2018-08-13T08:47:08.533Z,85407
2018-08-13T08:47:38.568Z,58977
2018-08-13T08:48:08.630Z,72563
2018-08-13T08:48:38.633Z,83127
2018-08-13T08:49:08.650Z,78050
2018-08-13T08:49:38.674Z,84753
2018-08-13T08:50:08.702Z,73773
2018-08-13T08:50:38.821Z,78187
2018-08-13T08:51:08.754Z,77760
2018-08-13T08:51:38.933Z,72483
2018-08-13T08:52:08.814Z,75173
2018-08-13T08:52:38.834Z,82620
2018-08-13T08:53:08.887Z,97580
2018-08-13T08:53:38.998Z,80957
2018-08-13T08:54:08.951Z,91613
2018-08-13T08:54:39.124Z,133373
2018-08-13T08:55:08.972Z,90963
2018-08-13T08:55:39.139Z,63293
2018-08-13T08:56:09.085Z,59073
2018-08-13T08:56:39.254Z,58593
2018-08-13T08:57:09.149Z,57233
2018-08-13T08:57:39.222Z,57493
2018-08-13T08:58:09.230Z,58997
2018-08-13T08:58:39.260Z,57983
2018-08-13T08:59:09.246Z,58477
2018-08-13T08:59:39.334Z,56423
2018-08-13T09:00:09.316Z,56313
2018-08-13T09:00:39.390Z,54943
2018-08-13T09:01:09.379Z,54420
2018-08-13T09:01:39.700Z,54950
2018-08-13T09:02:09.426Z,59270
2018-08-13T09:02:39.501Z,55793
2018-08-13T09:03:09.506Z,54803
2018-08-13T09:03:39.533Z,54757
2018-08-13T09:04:09.572Z,54547
2018-08-13T09:04:39.579Z,53093
2018-08-13T09:05:09.623Z,52843
2018-08-13T09:05:39.698Z,53227
2018-08-13T09:06:09.664Z,52307
2018-08-13T09:06:39.828Z,51210
2018-08-13T09:07:09.722Z,50760
2018-08-13T09:07:39.772Z,50853
2018-08-13T09:08:09.805Z,53487
2018-08-13T09:08:39.825Z,52587
2018-08-13T09:09:09.851Z,57267
2018-08-13T09:09:40.006Z,55727
2018-08-13T09:10:09.897Z,56957
2018-08-13T09:10:39.948Z,57290
2018-08-13T09:11:09.964Z,79777
2018-08-13T09:11:40.165Z,57273
2018-08-13T09:12:10.230Z,49727
2018-08-13T09:12:40.102Z,54283
2018-08-13T09:13:10.128Z,76277
2018-08-13T09:13:40.165Z,88503
2018-08-13T09:14:10.202Z,55933
2018-08-13T09:14:40.253Z,45740
2018-08-13T09:15:10.221Z,43243
2018-08-13T09:15:40.275Z,43680
2018-08-13T09:16:10.374Z,94547
2018-08-13T09:16:40.337Z,97857
2018-08-13T09:17:10.460Z,91940
2018-08-13T09:17:40.428Z,94457
2018-08-13T09:18:10.434Z,98947
2018-08-13T09:18:40.454Z,96153
2018-08-13T09:19:10.559Z,93870
2018-08-13T09:19:40.542Z,71447
2018-08-13T09:20:10.544Z,94707
2018-08-13T09:20:40.617Z,99073
2018-08-13T09:21:10.595Z,94953
2018-08-13T09:21:40.634Z,98750
2018-08-13T09:22:10.786Z,96663
2018-08-13T09:22:40.706Z,94650
2018-08-13T09:23:10.747Z,96923
2018-08-13T09:23:40.790Z,97187
2018-08-13T09:24:10.765Z,95060
2018-08-13T09:24:40.813Z,92977
2018-08-13T09:25:10.857Z,90510
2018-08-13T09:25:41.019Z,85987
2018-08-13T09:26:10.892Z,81650
2018-08-13T09:26:40.947Z,81193
2018-08-13T09:27:10.959Z,78193
2018-08-13T09:27:41.033Z,80753
2018-08-13T09:28:11.017Z,79307
2018-08-13T09:28:41.116Z,79333
2018-08-13T09:29:11.100Z,82740
2018-08-13T09:29:41.137Z,82607
2018-08-13T09:30:11.211Z,82353
2018-08-13T09:30:41.189Z,81403
2018-08-13T09:31:11.263Z,81703
2018-08-13T09:31:41.244Z,41740
2018-08-13T09:32:11.290Z,40293
2018-08-13T09:32:41.308Z,40130
2018-08-13T09:33:11.362Z,40263
2018-08-13T09:33:41.369Z,44280
2018-08-13T09:34:11.436Z,53043
2018-08-13T09:34:41.462Z,68860
2018-08-13T09:35:11.569Z,67527
2018-08-13T09:35:41.561Z,65430
2018-08-13T09:36:11.578Z,66487
2018-08-13T09:36:41.597Z,65823
2018-08-13T09:37:11.628Z,66377
2018-08-13T09:37:41.616Z,60093
2018-08-13T09:38:11.672Z,58203
2018-08-13T09:38:41.743Z,66020
2018-08-13T09:39:11.744Z,67630
2018-08-13T09:39:41.919Z,71080
2018-08-13T09:40:11.828Z,73117
2018-08-13T09:40:41.831Z,74810
2018-08-13T09:41:11.841Z,66163
2018-08-13T09:41:41.917Z,72740
2018-08-13T09:42:11.928Z,66590
2018-08-13T09:42:41.934Z,74017
2018-08-13T09:43:11.964Z,73250
2018-08-13T09:43:42.016Z,79420
2018-08-13T09:44:12.011Z,83453
2018-08-13T09:44:42.103Z,79433
2018-08-13T09:45:12.125Z,76297
2018-08-13T09:45:42.159Z,75487
2018-08-13T09:46:12.139Z,83063
2018-08-13T09:46:42.220Z,74947
2018-08-13T09:47:12.284Z,77490
2018-08-13T09:47:42.412Z,69063
2018-08-13T09:48:12.412Z,74073
2018-08-13T09:48:42.359Z,62883
2018-08-13T09:49:12.356Z,76117
2018-08-13T09:49:42.375Z,66667
2018-08-13T09:50:12.431Z,65910
2018-08-13T09:50:42.438Z,69150
2018-08-13T09:51:12.479Z,69147
2018-08-13T09:51:42.519Z,81040
2018-08-13T09:52:12.497Z,69290
2018-08-13T09:52:42.707Z,69017
2018-08-13T09:53:12.606Z,82270
2018-08-13T09:53:42.684Z,83747
2018-08-13T09:54:12.677Z,113993
2018-08-13T09:54:42.723Z,73820
2018-08-13T09:55:12.697Z,101817
2018-08-13T09:55:42.776Z,75930
2018-08-13T09:56:12.742Z,70853
2018-08-13T09:56:42.826Z,71663
2018-08-13T09:57:12.804Z,55330
2018-08-13T09:57:42.972Z,53340
2018-08-13T09:58:13.167Z,52553
2018-08-13T09:58:42.920Z,49067
2018-08-13T09:59:12.930Z,47380
2018-08-13T09:59:42.979Z,46470
2018-08-13T10:00:12.996Z,46537
2018-08-13T10:00:43.036Z,47167
2018-08-13T10:01:13.059Z,50623
2018-08-13T10:01:43.485Z,46427
2018-08-13T10:02:13.522Z,46100
2018-08-13T10:02:43.573Z,44653
2018-08-13T10:03:13.839Z,43260
2018-08-13T10:03:43.712Z,42160
2018-08-13T10:04:13.699Z,41190
2018-08-13T10:04:43.700Z,39910
2018-08-13T10:05:13.693Z,38630
2018-08-13T10:05:43.730Z,37823
2018-08-13T10:06:13.754Z,36977
2018-08-13T10:06:43.778Z,36440
2018-08-13T10:07:13.818Z,35490
2018-08-13T10:07:43.844Z,34840
2018-08-13T10:08:13.995Z,34083
2018-08-13T10:08:43.902Z,33290
2018-08-13T10:09:13.928Z,32637
2018-08-13T10:09:44.476Z,31900